Time;durP1;ratioP1;P1;durP2;ratioP2;P2;SDS_P1;SDS_P2;PMS_P1;PMS_P2;Temp;Humidity;BMP_temperature;BMP_pressure;BME280_temperature;BME280_humidity;BME280_pressure;Samples;Min_cycle;Max_cycle;Signal;HPM_P1;HPM_P2
2022/08/23 00:01:27;;;;;;;2.88;1.77;;;;;;;;;;5066165;28;20036;-69
2022/08/23 00:03:56;;;;;;;3.15;1.98;;;17.80;92.70;;;;;;5071476;28;20020;-69
2022/08/23 00:06:22;;;;;;;3.15;1.80;;;17.60;93.10;;;;;;5063151;28;20381;-69
2022/08/23 00:08:50;;;;;;;4.00;2.03;;;17.60;93.30;;;;;;5066026;28;20031;-69
2022/08/23 00:11:32;;;;;;;1.80;1.70;;;17.50;93.50;;;;;;5061761;28;20101;-69
2022/08/23 00:14:04;;;;;;;3.08;1.92;;;17.40;93.60;;;;;;5072917;28;20032;-69
2022/08/23 00:16:30;;;;;;;2.50;2.15;;;17.40;93.90;;;;;;5062090;28;20217;-70
2022/08/23 00:18:56;;;;;;;4.20;2.20;;;17.30;94.30;;;;;;5065740;28;20495;-70
2022/08/23 00:21:22;;;;;;;4.05;2.03;;;17.30;94.60;;;;;;5061745;28;20040;-69
2022/08/23 00:23:47;;;;;;;3.97;1.95;;;17.30;95.00;;;;;;5073332;28;20436;-69
2022/08/23 00:26:13;;;;;;;2.92;2.15;;;17.30;95.20;;;;;;5065666;28;20021;-69
2022/08/23 00:28:40;;;;;;;2.53;2.17;;;17.30;95.40;;;;;;5073491;28;20036;-69
2022/08/23 00:31:06;;;;;;;3.53;2.03;;;17.20;95.60;;;;;;5072542;28;20032;-69
2022/08/23 00:33:31;;;;;;;1.95;1.75;;;17.20;95.90;;;;;;5071928;28;20878;-69
2022/08/23 00:35:57;;;;;;;2.47;1.80;;;17.10;96.10;;;;;;5064552;28;20064;-69
2022/08/23 00:38:24;;;;;;;3.17;2.42;;;17.10;96.50;;;;;;5069258;28;20479;-70
2022/08/23 00:40:51;;;;;;;4.10;2.00;;;17.10;96.90;;;;;;5067947;28;20044;-70
2022/08/23 00:49:19;;;;;;;3.40;2.10;;;17.00;97.50;;;;;;5066510;28;20078;-69
2022/08/23 00:51:53;;;;;;;3.95;1.88;;;16.90;97.80;;;;;;5069052;28;20035;-69
2022/08/23 00:54:21;;;;;;;2.25;1.80;;;16.90;98.20;;;;;;5072330;28;20031;-69
2022/08/23 00:56:48;;;;;;;4.20;2.10;;;16.90;98.60;;;;;;5065034;28;20036;-69
2022/08/23 00:59:14;;;;;;;2.42;2.17;;;16.80;98.80;;;;;;5070564;28;20028;-70
2022/08/23 01:01:42;;;;;;;3.03;2.30;;;16.80;98.90;;;;;;5072603;28;20389;-70
2022/08/23 01:04:11;;;;;;;3.88;2.13;;;16.80;99.20;;;;;;5071326;28;20128;-69
2022/08/23 01:06:48;;;;;;;3.30;2.08;;;16.70;99.30;;;;;;5066305;28;20040;-69
2022/08/23 01:09:16;;;;;;;3.40;2.10;;;16.70;99.60;;;;;;5069164;28;20033;-69
2022/08/23 01:12:08;;;;;;;4.20;2.10;;;16.70;99.80;;;;;;5072210;28;20033;-70
2022/08/23 01:14:48;;;;;;;2.28;1.90;;;16.60;99.90;;;;;;5060683;28;20040;-70
2022/08/23 01:17:20;;;;;;;3.65;2.08;;;16.60;99.90;;;;;;5063701;28;20051;-69
2022/08/23 01:19:56;;;;;;;3.08;2.28;;;16.60;99.90;;;;;;5060555;28;20028;-69
2022/08/23 01:22:41;;;;;;;4.50;1.98;;;16.50;99.90;;;;;;5070685;28;20028;-69
2022/08/23 01:25:11;;;;;;;3.90;2.10;;;16.50;99.90;;;;;;5067871;28;20029;-69
2022/08/23 01:27:38;;;;;;;2.63;1.98;;;16.50;99.90;;;;;;5065351;28;20477;-69
2022/08/23 01:30:06;;;;;;;3.55;2.05;;;16.50;99.90;;;;;;5071263;28;20036;-69
2022/08/23 01:32:39;;;;;;;4.22;2.83;;;16.50;99.90;;;;;;5065263;28;20036;-69
2022/08/23 01:35:05;;;;;;;2.55;2.20;;;16.50;99.90;;;;;;5067334;28;20094;-70
2022/08/23 01:37:32;;;;;;;3.03;2.35;;;16.40;99.90;;;;;;5063882;28;20565;-68
2022/08/23 01:39:58;;;;;;;4.30;2.03;;;16.30;99.90;;;;;;5066100;28;20020;-69
2022/08/23 01:42:24;;;;;;;3.65;2.10;;;16.40;99.90;;;;;;5067500;28;20143;-68
2022/08/23 01:44:49;;;;;;;3.40;2.00;;;16.40;99.90;;;;;;5063987;28;20389;-69
2022/08/23 01:47:16;;;;;;;4.85;2.70;;;16.40;99.90;;;;;;5068542;28;20033;-68
2022/08/23 01:49:41;;;;;;;3.83;2.28;;;16.40;99.90;;;;;;5061159;28;20037;-69
2022/08/23 01:52:07;;;;;;;4.45;2.25;;;16.40;99.90;;;;;;5069845;28;20031;-69
2022/08/23 01:54:33;;;;;;;3.35;2.20;;;16.40;99.90;;;;;;5067603;28;20032;-69
2022/08/23 01:56:59;;;;;;;2.20;2.00;;;16.30;99.90;;;;;;5069115;28;20040;-70
2022/08/23 01:59:25;;;;;;;3.28;1.73;;;16.30;99.90;;;;;;5060803;28;20431;-69
2022/08/23 02:01:52;;;;;;;3.33;2.20;;;16.20;99.90;;;;;;5067864;28;20481;-69
2022/08/23 02:04:18;;;;;;;3.83;2.00;;;16.20;99.90;;;;;;5068660;28;20051;-69
2022/08/23 02:06:44;;;;;;;3.15;2.08;;;16.20;99.90;;;;;;5070040;28;20031;-70
2022/08/23 02:09:10;;;;;;;4.07;2.08;;;16.20;99.90;;;;;;5061114;28;21435;-69
2022/08/23 02:11:39;;;;;;;2.85;1.90;;;16.20;99.90;;;;;;5069204;28;20058;-69
2022/08/23 02:14:08;;;;;;;3.58;2.15;;;16.10;99.90;;;;;;5050986;28;20031;-69
2022/08/23 02:16:40;;;;;;;5.47;2.47;;;16.10;99.90;;;;;;5067545;28;20543;-69
2022/08/23 02:19:09;;;;;;;3.05;2.28;;;16.10;99.90;;;;;;5063075;28;20035;-69
2022/08/23 02:21:36;;;;;;;2.80;1.88;;;16.10;99.90;;;;;;5067583;28;20040;-69
2022/08/23 02:24:05;;;;;;;4.82;2.22;;;16.10;99.90;;;;;;5069731;28;20480;-69
2022/08/23 02:26:30;;;;;;;2.80;2.00;;;16.10;99.90;;;;;;5066428;28;20032;-69
2022/08/23 02:28:56;;;;;;;7.93;2.47;;;16.10;99.90;;;;;;5062813;28;20135;-69
2022/08/23 02:31:22;;;;;;;4.72;2.42;;;16.00;99.90;;;;;;5063746;28;20063;-69
2022/08/23 02:33:47;;;;;;;2.85;1.83;;;16.00;99.90;;;;;;5068679;28;20478;-69
2022/08/23 02:36:14;;;;;;;3.72;2.28;;;16.00;99.90;;;;;;5067971;28;20516;-69
2022/08/23 02:38:40;;;;;;;3.05;2.08;;;16.00;99.90;;;;;;5069509;28;20507;-69
2022/08/23 02:41:05;;;;;;;5.80;2.60;;;15.90;99.90;;;;;;5060638;28;20169;-68
2022/08/23 02:43:32;;;;;;;4.75;2.28;;;15.90;99.90;;;;;;5068955;28;20025;-68
2022/08/23 02:45:58;;;;;;;3.20;1.90;;;15.90;99.90;;;;;;5068855;28;20028;-69
2022/08/23 02:48:24;;;;;;;2.00;1.80;;;15.90;99.90;;;;;;5061562;28;20128;-68
2022/08/23 02:50:49;;;;;;;2.75;2.15;;;15.90;99.90;;;;;;5063107;28;20824;-69
2022/08/23 02:53:16;;;;;;;3.20;2.50;;;15.80;99.90;;;;;;5053888;28;20025;-69
2022/08/23 02:55:45;;;;;;;6.57;2.50;;;15.80;99.90;;;;;;5067917;28;20087;-70
2022/08/23 02:58:11;;;;;;;3.83;2.03;;;15.80;99.90;;;;;;5066577;28;20040;-69
2022/08/23 03:00:37;;;;;;;4.55;2.55;;;15.80;99.90;;;;;;5061988;28;20163;-69
2022/08/23 03:03:04;;;;;;;6.07;2.80;;;15.80;99.90;;;;;;5048740;28;20485;-69
2022/08/23 03:05:30;;;;;;;3.17;2.50;;;15.80;99.90;;;;;;5068150;28;20137;-69
2022/08/23 03:07:56;;;;;;;3.25;2.30;;;15.80;99.90;;;;;;5064776;28;20115;-68
2022/08/23 03:10:22;;;;;;;3.58;2.40;;;15.80;99.90;;;;;;5067349;28;20033;-68
2022/08/23 03:12:47;;;;;;;4.88;2.72;;;15.80;99.90;;;;;;5069934;28;20036;-68
2022/08/23 03:15:13;;;;;;;4.78;3.03;;;15.80;99.90;;;;;;5072058;28;20493;-68
2022/08/23 03:17:38;;;;;;;3.03;2.20;;;15.80;99.90;;;;;;5071354;28;20067;-68
2022/08/23 03:20:05;;;;;;;4.05;2.25;;;15.80;99.90;;;;;;5071764;28;20480;-68
2022/08/23 03:22:31;;;;;;;3.28;2.03;;;15.80;99.90;;;;;;5065242;28;20025;-68
2022/08/23 03:24:57;;;;;;;4.03;2.05;;;15.70;99.90;;;;;;5074910;28;20054;-68
2022/08/23 03:27:22;;;;;;;4.57;2.15;;;15.70;99.90;;;;;;5073455;28;20218;-69
2022/08/23 03:29:48;;;;;;;4.43;2.40;;;15.60;99.90;;;;;;5074297;28;20029;-69
2022/08/23 03:32:13;;;;;;;2.40;2.20;;;15.60;99.90;;;;;;5066196;28;20040;-69
2022/08/23 03:34:39;;;;;;;3.72;2.22;;;15.60;99.90;;;;;;5066024;28;20109;-69
2022/08/23 03:37:05;;;;;;;4.30;2.20;;;15.60;99.90;;;;;;5070218;28;20059;-69
2022/08/23 03:39:30;;;;;;;3.03;2.30;;;15.60;99.90;;;;;;5069588;28;20073;-68
2022/08/23 03:41:56;;;;;;;2.75;2.10;;;15.50;99.90;;;;;;5065368;28;20103;-68
2022/08/23 03:44:22;;;;;;;2.40;1.80;;;15.40;99.90;;;;;;5065922;28;20028;-68
2022/08/23 03:46:47;;;;;;;4.43;2.20;;;15.40;99.90;;;;;;5073815;28;20116;-68
2022/08/23 03:49:13;;;;;;;3.28;2.45;;;15.30;99.90;;;;;;5065722;28;20043;-68
2022/08/23 03:51:38;;;;;;;3.15;1.80;;;15.30;99.90;;;;;;5068986;28;20044;-68
2022/08/23 03:54:05;;;;;;;2.30;2.08;;;15.30;99.90;;;;;;5070820;28;20025;-69
2022/08/23 03:56:32;;;;;;;3.60;2.13;;;15.20;99.90;;;;;;5065693;28;20124;-69
2022/08/23 03:59:03;;;;;;;3.35;2.30;;;15.20;99.90;;;;;;5073397;28;20090;-70
2022/08/23 04:01:29;;;;;;;2.53;2.33;;;15.20;99.90;;;;;;5072866;28;20044;-69
2022/08/23 04:03:58;;;;;;;4.18;2.78;;;15.20;99.90;;;;;;5063340;28;20468;-69
2022/08/23 04:06:24;;;;;;;3.73;2.50;;;15.20;99.90;;;;;;5068307;28;20048;-69
2022/08/23 04:08:53;;;;;;;3.58;2.38;;;15.20;99.90;;;;;;5067315;28;20082;-69
2022/08/23 04:11:20;;;;;;;4.88;2.35;;;15.30;99.90;;;;;;5072807;28;20039;-70
2022/08/23 04:13:46;;;;;;;5.18;2.55;;;15.30;99.90;;;;;;5066775;28;20074;-70
2022/08/23 04:16:12;;;;;;;3.47;2.50;;;15.30;99.90;;;;;;5063223;28;20365;-69
2022/08/23 04:18:38;;;;;;;3.67;2.30;;;15.30;99.90;;;;;;5063019;28;20025;-68
2022/08/23 04:21:11;;;;;;;4.45;2.33;;;15.30;99.90;;;;;;5072106;28;20028;-69
2022/08/23 04:23:38;;;;;;;5.05;2.55;;;15.30;99.90;;;;;;5049423;28;20044;-69
2022/08/23 04:26:05;;;;;;;4.45;2.17;;;15.30;99.90;;;;;;5065011;28;20115;-69
2022/08/23 04:28:31;;;;;;;4.07;2.70;;;15.30;99.90;;;;;;5071995;28;20097;-69
2022/08/23 04:30:59;;;;;;;3.45;2.42;;;15.30;99.90;;;;;;5051783;28;20078;-69
2022/08/23 04:33:25;;;;;;;5.80;2.20;;;15.30;99.90;;;;;;5063802;28;20469;-68
2022/08/23 04:35:51;;;;;;;5.32;2.92;;;15.20;99.90;;;;;;5069135;28;20041;-69
2022/08/23 04:38:16;;;;;;;3.88;2.63;;;15.20;99.90;;;;;;5072103;28;20032;-68
2022/08/23 04:43:27;;;;;;;4.82;2.33;;;15.30;99.90;;;;;;5067373;28;20094;-68
2022/08/23 04:45:53;;;;;;;3.03;1.85;;;15.20;99.90;;;;;;5068876;28;20074;-69
2022/08/23 04:48:18;;;;;;;3.95;2.33;;;15.20;99.90;;;;;;5068921;28;20037;-69
2022/08/23 04:50:44;;;;;;;2.30;2.08;;;15.20;99.90;;;;;;5071754;28;20040;-69
2022/08/23 04:53:10;;;;;;;4.22;2.50;;;15.20;99.90;;;;;;5072737;28;20109;-69
2022/08/23 04:55:36;;;;;;;4.63;2.60;;;15.30;99.90;;;;;;5062971;28;20025;-68
2022/08/23 04:58:03;;;;;;;4.45;2.50;;;15.30;99.90;;;;;;5070593;28;20116;-69
2022/08/23 05:00:29;;;;;;;2.60;2.08;;;15.30;99.90;;;;;;5068735;28;20129;-68
2022/08/23 05:02:55;;;;;;;5.65;2.35;;;15.30;99.90;;;;;;5071137;28;20054;-69
2022/08/23 05:05:21;;;;;;;5.20;2.65;;;15.40;99.90;;;;;;5063003;28;20055;-69
2022/08/23 05:07:46;;;;;;;4.35;2.38;;;15.40;99.90;;;;;;5070623;28;20381;-69
2022/08/23 05:10:14;;;;;;;4.63;2.30;;;15.40;99.90;;;;;;5071799;28;20418;-69
2022/08/23 05:12:40;;;;;;;3.08;2.58;;;15.50;99.90;;;;;;5069792;28;20502;-68
2022/08/23 05:15:08;;;;;;;2.28;2.08;;;15.50;99.90;;;;;;5065179;28;20036;-68
2022/08/23 05:17:34;;;;;;;3.38;2.38;;;15.60;99.90;;;;;;5070566;28;20331;-68
2022/08/23 05:20:00;;;;;;;5.03;2.40;;;15.60;99.90;;;;;;5071222;28;20035;-68
2022/08/23 05:22:26;;;;;;;6.45;3.05;;;15.70;99.90;;;;;;5070204;28;20039;-68
2022/08/23 05:24:52;;;;;;;4.80;2.50;;;15.80;99.90;;;;;;5048392;28;20025;-69
2022/08/23 05:27:17;;;;;;;4.95;3.08;;;15.80;99.90;;;;;;5066863;28;20037;-69
2022/08/23 05:29:44;;;;;;;3.63;2.63;;;15.90;99.90;;;;;;5071285;28;20066;-69
2022/08/23 05:32:09;;;;;;;5.38;2.65;;;15.90;99.90;;;;;;5071957;28;20075;-69
2022/08/23 05:34:36;;;;;;;5.80;3.28;;;16.00;99.90;;;;;;5070829;28;20935;-69
2022/08/23 05:37:02;;;;;;;5.97;2.70;;;16.10;99.90;;;;;;5061456;28;20052;-70
2022/08/23 05:39:27;;;;;;;6.43;3.05;;;16.20;99.90;;;;;;5066449;28;20111;-85
2022/08/23 05:41:53;;;;;;;4.05;3.13;;;16.20;99.90;;;;;;5072286;28;20481;-85
2022/08/23 05:44:19;;;;;;;4.43;2.72;;;16.30;99.90;;;;;;5053575;28;20035;-81
2022/08/23 05:46:45;;;;;;;4.43;2.30;;;16.40;99.90;;;;;;5064827;28;20041;-82
2022/08/23 05:49:10;;;;;;;4.95;2.67;;;16.50;99.90;;;;;;5062652;28;20111;-82
2022/08/23 05:51:36;;;;;;;6.20;2.53;;;16.50;99.90;;;;;;5070519;28;20032;-81
2022/08/23 05:54:07;;;;;;;2.42;2.10;;;16.70;99.90;;;;;;5072087;28;20059;-81
2022/08/23 05:56:37;;;;;;;2.55;2.35;;;16.70;99.90;;;;;;5067045;28;20036;-86
2022/08/23 05:59:10;;;;;;;5.20;3.10;;;16.90;99.90;;;;;;5063585;28;20025;-82
2022/08/23 06:01:37;;;;;;;5.90;2.83;;;16.90;99.90;;;;;;5070079;28;20542;-82
2022/08/23 06:04:05;;;;;;;4.03;3.00;;;17.00;99.90;;;;;;5065963;28;20032;-83
2022/08/23 06:06:33;;;;;;;4.32;2.75;;;17.10;99.90;;;;;;5046536;28;20115;-84
2022/08/23 06:08:59;;;;;;;5.15;2.88;;;17.20;99.90;;;;;;5069601;28;20027;-83
2022/08/23 06:11:27;;;;;;;4.05;2.88;;;17.40;99.90;;;;;;5070429;28;20032;-83
2022/08/23 06:13:58;;;;;;;7.95;3.42;;;17.50;99.90;;;;;;5071461;28;20377;-84
2022/08/23 06:16:34;;;;;;;5.10;3.03;;;17.60;99.90;;;;;;5070502;28;20087;-81
2022/08/23 06:19:03;;;;;;;5.60;3.00;;;17.70;99.90;;;;;;5068468;28;20032;-82
2022/08/23 06:21:30;;;;;;;7.65;4.00;;;17.80;99.90;;;;;;5064046;28;20089;-81
2022/08/23 06:23:56;;;;;;;7.65;3.53;;;18.00;99.90;;;;;;5071390;28;20504;-85
2022/08/23 06:26:25;;;;;;;8.20;3.10;;;18.00;99.90;;;;;;5070919;28;20032;-86
2022/08/23 06:28:54;;;;;;;4.78;2.90;;;18.20;99.90;;;;;;5065103;28;20412;-82
2022/08/23 06:34:09;;;;;;;5.00;2.60;;;18.40;99.90;;;;;;5059917;28;20079;-80
2022/08/23 06:36:36;;;;;;;4.35;2.58;;;18.50;99.90;;;;;;5066714;28;20615;-80
2022/08/23 06:39:06;;;;;;;4.13;2.72;;;18.60;99.90;;;;;;5071206;28;20064;-83
2022/08/23 06:41:31;;;;;;;;;;;18.80;99.90;;;;;;5071203;28;20024;-82
2022/08/23 06:43:57;;;;;;;5.20;3.03;;;18.90;99.90;;;;;;5077419;28;19916;-79
2022/08/23 06:46:26;;;;;;;5.78;2.95;;;19.00;99.90;;;;;;5070442;28;20033;-80
2022/08/23 06:48:56;;;;;;;13.88;4.05;;;19.10;99.90;;;;;;5047262;28;20025;-80
2022/08/23 06:51:24;;;;;;;;;;;19.30;99.90;;;;;;5061961;28;20104;-80
2022/08/23 06:53:55;;;;;;;8.68;3.22;;;19.40;99.90;;;;;;5068555;28;19920;-82
2022/08/23 06:56:23;;;;;;;5.90;3.47;;;19.50;99.90;;;;;;5066475;28;20482;-84
2022/08/23 06:58:49;;;;;;;7.40;3.20;;;19.60;99.90;;;;;;5066724;28;20032;-73
2022/08/23 07:01:31;;;;;;;5.95;2.78;;;19.70;99.90;;;;;;5069219;28;20064;-76
2022/08/23 07:03:58;;;;;;;5.57;3.03;;;19.80;99.90;;;;;;5063323;28;20028;-75
2022/08/23 07:06:27;;;;;;;4.90;2.80;;;19.90;99.90;;;;;;5068829;28;20029;-72
2022/08/23 07:08:53;;;;;;;15.00;3.28;;;20.10;99.90;;;;;;5062556;28;20036;-72
2022/08/23 07:11:20;;;;;;;7.28;3.80;;;20.30;99.90;;;;;;5068190;28;20028;-74
2022/08/23 07:13:46;;;;;;;4.03;3.00;;;20.40;99.90;;;;;;5065989;28;20056;-73
2022/08/23 07:16:13;;;;;;;5.88;3.05;;;20.60;99.90;;;;;;5069215;28;20024;-73
2022/08/23 07:18:38;;;;;;;14.68;4.32;;;20.70;99.70;;;;;;5074780;28;20036;-73
2022/08/23 07:21:05;;;;;;;6.90;3.78;;;20.80;99.70;;;;;;5071174;28;20024;-73
2022/08/23 07:23:32;;;;;;;9.05;3.92;;;20.80;99.50;;;;;;5068929;28;20390;-72
2022/08/23 07:25:59;;;;;;;8.45;3.92;;;20.80;99.50;;;;;;5079512;28;20028;-73
2022/08/23 07:28:26;;;;;;;20.98;5.50;;;20.90;99.60;;;;;;5065431;28;20032;-72
2022/08/23 07:30:53;;;;;;;9.25;4.13;;;20.90;99.60;;;;;;5070224;28;20017;-74
2022/08/23 07:33:20;;;;;;;13.82;5.53;;;21.00;99.80;;;;;;5044462;28;20048;-74
2022/08/23 07:35:50;;;;;;;7.78;3.95;;;21.10;99.70;;;;;;5069241;28;20025;-72
2022/08/23 07:38:17;;;;;;;8.82;4.60;;;21.10;99.20;;;;;;5064694;28;20737;-76
2022/08/23 07:40:43;;;;;;;8.85;4.13;;;21.20;99.20;;;;;;5067170;28;20044;-73
2022/08/23 07:43:10;;;;;;;9.52;4.40;;;21.30;99.00;;;;;;5066584;28;20040;-72
2022/08/23 07:45:37;;;;;;;11.18;4.30;;;21.40;98.90;;;;;;5068144;28;20602;-74
2022/08/23 07:48:04;;;;;;;12.90;4.45;;;21.50;99.00;;;;;;5049338;28;20400;-75
2022/08/23 07:50:29;;;;;;;10.25;3.92;;;21.60;98.60;;;;;;5067710;28;20481;-70
2022/08/23 07:52:55;;;;;;;5.72;4.38;;;21.80;98.80;;;;;;5051542;28;20031;-71
2022/08/23 07:55:21;;;;;;;7.20;3.92;;;21.90;97.90;;;;;;5050940;28;20539;-71
2022/08/23 07:57:47;;;;;;;8.63;4.57;;;21.90;98.00;;;;;;5072789;28;20036;-70
2022/08/23 08:00:13;;;;;;;9.82;3.95;;;22.00;97.90;;;;;;5067698;28;20149;-69
2022/08/23 08:02:40;;;;;;;8.48;3.85;;;22.10;97.30;;;;;;5073411;28;20039;-71
2022/08/23 08:05:06;;;;;;;12.10;4.03;;;22.30;97.20;;;;;;5073362;28;20100;-71
2022/08/23 08:07:32;;;;;;;5.40;3.80;;;22.40;96.70;;;;;;5073883;28;20115;-71
2022/08/23 08:09:58;;;;;;;10.05;4.00;;;22.50;96.90;;;;;;5077305;28;20115;-70
2022/08/23 08:12:25;;;;;;;5.10;3.50;;;22.60;96.40;;;;;;5073399;28;20528;-70
2022/08/23 08:14:52;;;;;;;6.85;3.55;;;22.70;96.60;;;;;;5075491;28;20024;-71
2022/08/23 08:17:18;;;;;;;4.63;3.20;;;22.80;96.10;;;;;;5068051;28;20492;-73
2022/08/23 08:19:43;;;;;;;7.68;4.03;;;23.00;95.70;;;;;;5073063;28;20115;-71
2022/08/23 08:22:09;;;;;;;7.03;3.72;;;23.10;95.60;;;;;;5073184;28;20032;-70
2022/08/23 08:24:35;;;;;;;8.30;3.83;;;23.20;95.20;;;;;;5071297;28;20029;-71
2022/08/23 08:27:00;;;;;;;5.70;3.55;;;23.30;94.80;;;;;;5070532;28;20078;-71
2022/08/23 08:29:26;;;;;;;9.35;3.65;;;23.40;94.80;;;;;;5072288;28;20037;-71
2022/08/23 08:31:52;;;;;;;6.60;3.20;;;23.50;94.50;;;;;;5072169;28;20447;-70
2022/08/23 08:34:17;;;;;;;8.77;3.53;;;23.60;94.40;;;;;;5072088;28;20107;-73
2022/08/23 08:36:50;;;;;;;7.07;3.78;;;23.70;94.50;;;;;;5068272;28;20090;-71
2022/08/23 08:39:20;;;;;;;8.48;3.50;;;23.90;93.60;;;;;;5072499;28;20028;-71
2022/08/23 08:42:02;;;;;;;11.50;3.90;;;24.10;93.20;;;;;;5067170;28;20412;-71
2022/08/23 08:44:48;;;;;;;6.43;3.45;;;24.20;93.00;;;;;;5069182;28;20056;-71
2022/08/23 08:47:45;;;;;;;10.85;3.90;;;24.40;92.50;;;;;;5060774;28;20533;-71
2022/08/23 08:50:37;;;;;;;10.02;3.95;;;24.60;92.40;;;;;;5066858;28;20112;-71
2022/08/23 08:53:15;;;;;;;6.93;3.55;;;24.80;91.60;;;;;;5061557;28;20034;-72
2022/08/23 08:55:46;;;;;;;5.97;3.28;;;24.90;91.20;;;;;;5069850;28;20028;-71
2022/08/23 08:58:28;;;;;;;4.72;2.60;;;25.00;90.60;;;;;;5069975;28;20039;-72
2022/08/23 09:00:54;;;;;;;5.53;3.13;;;25.10;90.10;;;;;;5067677;28;20017;-70
2022/08/23 09:03:21;;;;;;;4.18;2.50;;;25.10;89.50;;;;;;5071121;28;20086;-68
2022/08/23 09:06:00;;;;;;;5.93;2.45;;;25.30;87.40;;;;;;5069075;28;20108;-68
2022/08/23 09:08:45;;;;;;;4.22;2.65;;;25.40;87.60;;;;;;5065747;28;20024;-71
2022/08/23 09:11:27;;;;;;;3.22;2.45;;;25.60;86.20;;;;;;5069188;28;20086;-70
2022/08/23 09:14:09;;;;;;;3.38;2.28;;;25.80;84.10;;;;;;5071878;28;20385;-72
2022/08/23 09:17:03;;;;;;;9.75;2.80;;;26.10;81.40;;;;;;5066294;28;20045;-71
2022/08/23 09:19:32;;;;;;;4.45;2.65;;;26.30;81.60;;;;;;5068193;28;20044;-69
2022/08/23 09:22:02;;;;;;;6.03;2.60;;;26.50;82.20;;;;;;5069812;28;20206;-71
2022/08/23 09:24:29;;;;;;;4.95;2.55;;;26.60;80.80;;;;;;5070856;28;20036;-76
2022/08/23 09:26:55;;;;;;;5.03;2.28;;;26.70;80.20;;;;;;5070008;28;20043;-70
2022/08/23 09:29:26;;;;;;;6.63;2.60;;;26.80;78.10;;;;;;5071083;28;20029;-69
2022/08/23 09:31:57;;;;;;;2.25;1.65;;;26.90;77.80;;;;;;5069867;28;20028;-72
2022/08/23 09:34:29;;;;;;;5.75;2.00;;;26.90;75.40;;;;;;5070788;28;20025;-70
2022/08/23 09:37:12;;;;;;;4.95;2.20;;;27.00;73.60;;;;;;5064985;28;20040;-71
2022/08/23 09:40:02;;;;;;;5.15;1.90;;;27.00;72.80;;;;;;5066059;28;20036;-72
2022/08/23 09:42:37;;;;;;;2.35;1.70;;;27.20;70.70;;;;;;5063225;28;20492;-71
2022/08/23 09:45:50;;;;;;;4.35;2.85;;;27.30;70.70;;;;;;5064725;28;20033;-71
2022/08/23 09:48:38;;;;;;;5.68;1.73;;;27.40;70.10;;;;;;5052143;28;20416;-71
2022/08/23 09:51:34;;;;;;;4.95;1.95;;;27.50;68.60;;;;;;5063953;28;20036;-71
2022/08/23 09:54:16;;;;;;;4.15;2.10;;;27.50;66.90;;;;;;5069863;28;20044;-72
2022/08/23 09:56:48;;;;;;;4.90;1.75;;;27.50;66.70;;;;;;5067664;28;20040;-70
2022/08/23 09:59:26;;;;;;;6.80;2.25;;;27.50;67.10;;;;;;5070406;28;20425;-71
2022/08/23 10:01:55;;;;;;;3.63;1.58;;;27.60;65.20;;;;;;5066352;28;20033;-71
2022/08/23 10:04:28;;;;;;;2.33;1.80;;;27.70;65.30;;;;;;5067125;28;20082;-70
2022/08/23 10:06:54;;;;;;;4.13;1.60;;;27.70;65.60;;;;;;5062811;28;20126;-71
2022/08/23 10:09:22;;;;;;;2.92;1.80;;;27.80;64.60;;;;;;5067176;28;20033;-71
2022/08/23 10:11:48;;;;;;;2.13;1.65;;;27.90;64.70;;;;;;5067952;28;20024;-71
2022/08/23 10:14:16;;;;;;;2.40;1.70;;;28.00;64.30;;;;;;5067776;28;20024;-71
2022/08/23 10:17:01;;;;;;;2.97;2.00;;;28.10;63.10;;;;;;5066696;28;20037;-71
2022/08/23 10:19:41;;;;;;;2.55;1.95;;;28.20;63.60;;;;;;5064312;28;20043;-71
2022/08/23 10:22:21;;;;;;;2.03;1.50;;;28.30;63.60;;;;;;5049781;28;20055;-69
2022/08/23 10:24:57;;;;;;;3.30;1.90;;;28.40;62.90;;;;;;5070484;28;20028;-72
2022/08/23 10:31:00;;;;;;;3.95;2.03;;;28.60;61.40;;;;;;5063307;28;20040;-70
2022/08/23 10:33:42;;;;;;;3.50;1.70;;;28.50;60.60;;;;;;5027506;28;20478;-76
2022/08/23 10:36:26;;;;;;;4.68;1.80;;;28.50;60.70;;;;;;5070471;28;20060;-76
2022/08/23 10:38:57;;;;;;;3.22;2.08;;;28.50;59.70;;;;;;5067716;28;20036;-73
2022/08/23 10:41:57;;;;;;;3.33;1.73;;;28.50;60.00;;;;;;5060344;28;20078;-72
2022/08/23 10:44:54;;;;;;;5.78;1.77;;;28.70;59.70;;;;;;5066877;28;20137;-72
2022/08/23 10:47:36;;;;;;;2.65;1.70;;;28.80;58.90;;;;;;5062931;28;20044;-72
2022/08/23 10:50:13;;;;;;;6.00;2.20;;;28.90;58.90;;;;;;5059625;28;20039;-77
2022/08/23 10:53:03;;;;;;;2.95;1.50;;;28.80;58.90;;;;;;5070500;28;20036;-75
2022/08/23 10:55:53;;;;;;;3.83;2.20;;;28.70;59.20;;;;;;5033985;28;20032;-71
2022/08/23 10:58:24;;;;;;;;;;;28.60;59.80;;;;;;5063829;28;20037;-76
2022/08/23 11:00:52;;;;;;;5.47;1.77;;;28.60;59.50;;;;;;5065995;28;20003;-74
2022/08/23 11:03:32;;;;;;;5.13;1.77;;;28.70;59.50;;;;;;5069931;28;20102;-76
2022/08/23 11:06:22;;;;;;;3.70;1.70;;;28.80;59.40;;;;;;5063509;28;20386;-73
2022/08/23 11:08:56;;;;;;;;;;;28.90;59.40;;;;;;5065819;28;20025;-77
2022/08/23 11:11:42;;;;;;;7.00;1.98;;;29.10;59.00;;;;;;5064713;28;19916;-72
2022/08/23 11:14:10;;;;;;;3.53;1.90;;;29.20;58.80;;;;;;5065044;28;20027;-74
2022/08/23 11:16:40;;;;;;;2.58;1.75;;;29.30;58.80;;;;;;5066244;28;20044;-72
2022/08/23 11:19:11;;;;;;;3.10;1.80;;;29.40;58.90;;;;;;5056912;28;20036;-71
2022/08/23 11:21:38;;;;;;;5.85;1.77;;;29.60;58.30;;;;;;5068276;28;20465;-71
2022/08/23 11:24:04;;;;;;;3.53;1.75;;;29.70;57.60;;;;;;5065159;28;20441;-71
2022/08/23 11:26:36;;;;;;;3.80;2.03;;;29.70;57.50;;;;;;5066884;28;20032;-72
2022/08/23 11:29:05;;;;;;;3.50;1.73;;;29.70;57.40;;;;;;5065243;28;20082;-71
2022/08/23 11:31:39;;;;;;;6.13;1.98;;;29.60;57.20;;;;;;5059499;28;20039;-71
2022/08/23 11:34:32;;;;;;;7.78;2.00;;;29.50;57.60;;;;;;5073316;28;20107;-70
2022/08/23 11:37:19;;;;;;;3.70;2.05;;;29.40;57.10;;;;;;5071032;28;20485;-69
2022/08/23 11:39:57;;;;;;;4.15;1.92;;;29.40;57.60;;;;;;5059333;28;20086;-73
2022/08/23 11:42:24;;;;;;;2.47;2.00;;;29.40;57.30;;;;;;5073480;28;20512;-72
2022/08/23 11:44:50;;;;;;;5.55;1.88;;;29.40;57.70;;;;;;5065944;28;20028;-78
2022/08/23 11:47:38;;;;;;;4.63;2.00;;;29.60;57.20;;;;;;5070257;28;20102;-77
2022/08/23 11:50:24;;;;;;;3.80;2.15;;;29.70;57.20;;;;;;5064276;28;20028;-70
2022/08/23 11:53:12;;;;;;;2.30;2.00;;;29.90;57.40;;;;;;5069247;28;20090;-79
2022/08/23 11:55:49;;;;;;;2.80;1.92;;;30.10;56.10;;;;;;5062420;28;20031;-71
2022/08/23 11:58:14;;;;;;;5.05;2.67;;;30.30;55.80;;;;;;5069169;28;20037;-79
2022/08/23 12:01:08;;;;;;;5.63;1.83;;;30.50;55.10;;;;;;5068071;28;20098;-71
2022/08/23 12:03:58;;;;;;;5.07;2.10;;;30.50;54.30;;;;;;5067642;28;20380;-69
2022/08/23 12:06:25;;;;;;;;;;;30.60;54.50;;;;;;5067608;28;20369;-69
2022/08/23 12:08:55;;;;;;;4.63;2.10;;;30.50;54.40;;;;;;5066506;28;19930;-69
2022/08/23 12:11:24;;;;;;;5.70;2.00;;;30.30;54.60;;;;;;5068194;28;20513;-69
2022/08/23 12:13:59;;;;;;;1.95;1.73;;;30.30;55.30;;;;;;5073301;28;20036;-70
2022/08/23 12:16:30;;;;;;;4.68;2.03;;;30.30;55.10;;;;;;5072395;28;20041;-69
2022/08/23 12:19:05;;;;;;;3.58;1.83;;;30.40;54.80;;;;;;5066930;28;20147;-70
2022/08/23 12:21:47;;;;;;;2.75;1.98;;;30.40;54.90;;;;;;5064193;28;20033;-70
2022/08/23 12:24:24;;;;;;;5.43;1.83;;;30.50;54.30;;;;;;5067849;28;20457;-70
2022/08/23 12:27:03;;;;;;;3.60;2.10;;;30.40;54.90;;;;;;5071879;28;20409;-73
2022/08/23 12:29:55;;;;;;;3.72;2.28;;;30.40;55.40;;;;;;5057002;28;20025;-72
2022/08/23 12:33:05;;;;;;;4.90;2.08;;;30.40;54.40;;;;;;5069721;28;20024;-73
2022/08/23 12:35:39;;;;;;;5.20;2.15;;;30.40;54.60;;;;;;4990299;28;20395;-72
2022/08/23 12:38:26;;;;;;;3.60;2.15;;;30.40;55.00;;;;;;5047557;28;20056;-69
2022/08/23 12:40:53;;;;;;;3.63;1.52;;;30.40;55.40;;;;;;5051769;28;20027;-69
2022/08/23 12:43:28;;;;;;;5.05;2.05;;;30.60;74.00;;;;;;5053316;28;20017;-72
2022/08/23 12:45:54;;;;;;;4.18;2.33;;;;;;;;;;5052491;28;20049;-72
2022/08/23 12:48:23;;;;;;;5.65;2.53;;;;;;;;;;5053292;28;20029;-74
2022/08/23 12:51:05;;;;;;;4.65;2.08;;;;;;;;;;5050454;28;20033;-73
2022/08/23 12:53:33;;;;;;;3.15;1.88;;;;;;;;;;5047161;28;20422;-73
2022/08/23 12:56:03;;;;;;;4.68;1.85;;;;;;;;;;5052807;28;20025;-70
2022/08/23 12:58:32;;;;;;;2.70;2.00;;;29.60;82.10;;;;;;5052449;28;20028;-69
2022/08/23 13:01:02;;;;;;;2.75;1.77;;;29.90;76.80;;;;;;5051965;28;20131;-70
2022/08/23 13:03:33;;;;;;;2.28;1.60;;;30.20;73.80;;;;;;5052533;28;20039;-70
2022/08/23 13:06:07;;;;;;;3.92;1.52;;;30.50;71.90;;;;;;5052203;28;20021;-70
2022/08/23 13:08:43;;;;;;;2.95;1.95;;;30.80;72.90;;;;;;5041798;28;20140;-71
2022/08/23 13:11:11;;;;;;;2.00;1.60;;;;;;;;;;5042556;28;20022;-70
2022/08/23 13:13:39;;;;;;;4.15;2.15;;;31.40;74.00;;;;;;5048835;28;20108;-70
2022/08/23 13:16:25;;;;;;;2.95;2.10;;;31.40;72.40;;;;;;5049047;28;20402;-69
2022/08/23 13:18:51;;;;;;;3.95;2.33;;;31.40;53.40;;;;;;5049480;28;20029;-69
2022/08/23 13:21:23;;;;;;;4.32;2.30;;;;;;;;;;5049342;28;20036;-70
2022/08/23 13:23:50;;;;;;;4.85;2.13;;;;;;;;;;5045334;28;20025;-70